Bailing-Miao, China
Current Conditions -  °F | °C
As of 7:00 AM on Monday 22 Dec 2014 (Local Time) from ZBHH Reporting Station
Clear Clear  
Wind Chill: -11°   Ceiling: Unl
Heat Index:   Visibility: 6mi
Dew Point: -4°   Wind: 7mph
Humidity: 78%   Direction: 30°NNE
Pressure: 30.24"   Gusts: NA
Location:  41.7°N, 110.43°E
Report Text: ZBHH 212300Z 03003MPS CAVOK M17/M20 Q1024 NOSIG
Loading
Personal Weather Stations






























Interactive Weather Map New forecast layout! Learn more

10-Day Weather Forecast

Advertisements
Track Severe Weather on mobile